Time;durP1;ratioP1;P1;durP2;ratioP2;P2;SDS_P1;SDS_P2;PMS_P1;PMS_P2;Temp;Humidity;BMP_temperature;BMP_pressure;BME280_temperature;BME280_humidity;BME280_pressure;Samples;Min_cycle;Max_cycle;Signal;HPM_P1;HPM_P2
2023/08/25 00:02:25;;;;;;;5.93;4.30;;;21.40;95.90;;;;;;5074444;28;20461;-79
2023/08/25 00:04:50;;;;;;;8.95;6.03;;;21.40;95.90;;;;;;5056200;28;20055;-79
2023/08/25 00:07:16;;;;;;;7.05;4.32;;;21.40;95.90;;;;;;5073966;28;20466;-79
2023/08/25 00:09:44;;;;;;;7.57;5.03;;;21.40;95.90;;;;;;5073432;28;20044;-79
2023/08/25 00:12:11;;;;;;;6.32;4.55;;;21.40;95.90;;;;;;5072649;28;20055;-79
2023/08/25 00:14:36;;;;;;;6.95;5.00;;;21.30;95.90;;;;;;5073595;28;20051;-79
2023/08/25 00:17:03;;;;;;;8.85;4.90;;;21.30;95.90;;;;;;5074090;28;20044;-79
2023/08/25 00:19:29;;;;;;;9.65;5.00;;;21.30;95.90;;;;;;5074456;28;20048;-80
2023/08/25 00:21:54;;;;;;;7.30;5.47;;;21.30;95.90;;;;;;5074056;28;20044;-79
2023/08/25 00:24:20;;;;;;;7.60;5.03;;;21.30;96.00;;;;;;5074134;28;20045;-79
2023/08/25 00:26:46;;;;;;;6.90;4.32;;;21.30;96.00;;;;;;5072883;28;20066;-79
2023/08/25 00:29:12;;;;;;;8.70;5.07;;;21.20;96.00;;;;;;5074363;28;20486;-79
2023/08/25 00:31:37;;;;;;;8.82;6.38;;;21.20;96.20;;;;;;5073704;28;20491;-79
2023/08/25 00:34:03;;;;;;;7.05;4.68;;;21.20;96.30;;;;;;5073281;28;20474;-79
2023/08/25 00:36:29;;;;;;;11.65;6.60;;;21.20;96.20;;;;;;5073913;28;20426;-80
2023/08/25 00:38:54;;;;;;;9.45;6.05;;;21.20;96.30;;;;;;5073155;28;20040;-79
2023/08/25 00:41:20;;;;;;;7.80;4.72;;;21.20;96.30;;;;;;5073201;28;20067;-79
2023/08/25 00:43:46;;;;;;;8.43;5.88;;;21.20;96.10;;;;;;5072970;28;20040;-79
2023/08/25 00:46:13;;;;;;;8.23;6.18;;;21.10;96.10;;;;;;5073250;28;20123;-79
2023/08/25 00:48:39;;;;;;;9.20;6.13;;;21.10;96.30;;;;;;5073572;28;20145;-79
2023/08/25 00:51:06;;;;;;;10.35;6.57;;;21.10;96.50;;;;;;5073335;28;20486;-79
2023/08/25 00:53:33;;;;;;;7.75;4.90;;;21.10;96.90;;;;;;5073058;28;20081;-79
2023/08/25 00:56:00;;;;;;;8.95;6.50;;;21.10;96.50;;;;;;5072495;28;20538;-79
2023/08/25 00:58:25;;;;;;;9.00;6.32;;;21.10;96.40;;;;;;5073509;28;20040;-79
2023/08/25 01:00:53;;;;;;;7.57;5.05;;;21.10;96.60;;;;;;5072714;28;20483;-79
2023/08/25 01:03:19;;;;;;;8.40;5.75;;;21.10;96.20;;;;;;5073297;28;20067;-79
2023/08/25 01:05:48;;;;;;;8.20;6.15;;;21.00;96.30;;;;;;5073090;28;20040;-79
2023/08/25 01:08:19;;;;;;;13.18;10.15;;;21.10;96.60;;;;;;5073481;28;20489;-79
2023/08/25 01:11:07;;;;;;;10.20;7.03;;;21.00;97.40;;;;;;5072168;28;20047;-79
2023/08/25 01:14:03;;;;;;;11.60;8.32;;;21.00;97.00;;;;;;5059127;28;20444;-79
2023/08/25 01:16:52;;;;;;;10.38;6.95;;;21.00;96.80;;;;;;5069991;28;20055;-79
2023/08/25 01:19:32;;;;;;;8.55;6.13;;;21.00;96.80;;;;;;5073351;28;20044;-79
2023/08/25 01:21:59;;;;;;;11.32;8.13;;;21.00;97.10;;;;;;5071352;28;20047;-79
2023/08/25 01:24:30;;;;;;;10.48;7.03;;;21.00;97.10;;;;;;5059875;28;20121;-79
2023/08/25 01:26:56;;;;;;;6.72;5.13;;;20.90;96.80;;;;;;5072778;28;20071;-79
2023/08/25 01:29:22;;;;;;;8.43;6.45;;;20.90;96.60;;;;;;5072920;28;20052;-79
2023/08/25 01:31:47;;;;;;;9.75;6.63;;;20.90;96.60;;;;;;5072443;28;20044;-79
2023/08/25 01:34:15;;;;;;;8.05;5.50;;;20.90;96.60;;;;;;5071876;28;20052;-79
2023/08/25 01:37:04;;;;;;;11.43;10.13;;;20.90;96.50;;;;;;5054596;28;20487;-79
2023/08/25 01:39:35;;;;;;;10.90;8.40;;;20.80;96.70;;;;;;5072750;28;20090;-79
2023/08/25 01:42:07;;;;;;;6.55;5.18;;;20.90;97.00;;;;;;5072749;28;20052;-79
2023/08/25 01:44:37;;;;;;;10.57;7.53;;;20.90;96.80;;;;;;5072655;28;20498;-79
2023/08/25 01:47:08;;;;;;;7.47;6.22;;;20.80;96.70;;;;;;5072060;28;20067;-79
2023/08/25 01:49:37;;;;;;;8.73;5.97;;;20.80;96.60;;;;;;5071190;28;20032;-79
2023/08/25 01:52:03;;;;;;;10.63;8.52;;;20.80;96.50;;;;;;5071346;28;20083;-79
2023/08/25 01:54:30;;;;;;;12.05;10.63;;;20.80;96.70;;;;;;5072538;28;20098;-79
2023/08/25 01:56:55;;;;;;;8.30;6.50;;;20.80;97.20;;;;;;5072651;28;20041;-79
2023/08/25 01:59:21;;;;;;;10.95;9.57;;;20.80;96.80;;;;;;5072475;28;20552;-78
2023/08/25 02:01:47;;;;;;;7.55;6.60;;;20.80;96.90;;;;;;5071785;28;20076;-79
2023/08/25 02:04:12;;;;;;;7.28;5.63;;;20.80;96.90;;;;;;5071893;28;20082;-79
2023/08/25 02:06:38;;;;;;;10.68;8.70;;;20.80;96.70;;;;;;5071278;28;20041;-79
2023/08/25 02:09:04;;;;;;;8.13;6.53;;;20.70;96.70;;;;;;5072172;28;20170;-79
2023/08/25 02:11:30;;;;;;;7.88;6.18;;;20.70;96.70;;;;;;5071896;28;20474;-79
2023/08/25 02:13:55;;;;;;;10.10;6.70;;;20.70;96.60;;;;;;5072642;28;20067;-79
2023/08/25 02:16:21;;;;;;;9.68;8.30;;;20.70;96.50;;;;;;5071507;28;20036;-79
2023/08/25 02:18:47;;;;;;;8.15;6.13;;;20.70;96.60;;;;;;5067863;28;20045;-78
2023/08/25 02:21:12;;;;;;;9.93;7.35;;;20.70;96.50;;;;;;5067553;28;20045;-79
2023/08/25 02:23:38;;;;;;;12.25;9.18;;;20.70;96.30;;;;;;5072594;28;20063;-79
2023/08/25 02:26:03;;;;;;;9.30;6.72;;;20.70;96.60;;;;;;5072348;28;20071;-79
2023/08/25 02:28:29;;;;;;;7.50;6.32;;;20.60;96.50;;;;;;5072543;28;20079;-80
2023/08/25 02:30:55;;;;;;;7.85;6.35;;;20.60;96.50;;;;;;5071770;28;20189;-79
2023/08/25 02:33:20;;;;;;;9.80;8.45;;;20.60;96.40;;;;;;5073954;28;20055;-79
2023/08/25 02:35:46;;;;;;;10.23;6.70;;;20.60;96.40;;;;;;5075912;28;20045;-79
2023/08/25 02:38:15;;;;;;;9.93;6.90;;;20.60;96.30;;;;;;5076092;28;20048;-79
2023/08/25 02:40:43;;;;;;;11.85;9.05;;;20.60;96.40;;;;;;5074824;28;20048;-79
2023/08/25 02:43:09;;;;;;;8.98;7.35;;;20.50;96.30;;;;;;5075517;28;20044;-79
2023/08/25 02:45:35;;;;;;;8.32;6.72;;;20.50;96.30;;;;;;5075114;28;20044;-79
2023/08/25 02:48:02;;;;;;;10.15;6.80;;;20.50;96.30;;;;;;5075559;28;20096;-79
2023/08/25 02:50:27;;;;;;;9.88;6.65;;;20.50;96.40;;;;;;5074109;28;20053;-79
2023/08/25 02:52:56;;;;;;;12.13;9.77;;;20.50;96.40;;;;;;5076147;28;20042;-79
2023/08/25 02:55:22;;;;;;;11.27;8.95;;;20.50;96.40;;;;;;5058137;28;20059;-79
2023/08/25 02:57:49;;;;;;;12.43;8.13;;;20.50;96.70;;;;;;5075694;28;20047;-80
2023/08/25 03:00:21;;;;;;;9.93;8.32;;;20.50;96.30;;;;;;5075429;28;20052;-79
2023/08/25 03:02:50;;;;;;;9.43;8.18;;;20.40;96.70;;;;;;5075088;28;20123;-79
2023/08/25 03:05:21;;;;;;;11.20;9.02;;;20.40;96.50;;;;;;5074137;28;20044;-79
2023/08/25 03:07:53;;;;;;;11.07;7.88;;;20.40;96.50;;;;;;5071929;28;20048;-80
2023/08/25 03:10:19;;;;;;;9.37;8.20;;;20.40;96.50;;;;;;5073641;28;20437;-79
2023/08/25 03:12:45;;;;;;;10.00;7.97;;;20.40;96.60;;;;;;5074097;28;20048;-79
2023/08/25 03:15:10;;;;;;;9.60;8.50;;;20.30;96.40;;;;;;5074601;28;20450;-79
2023/08/25 03:17:37;;;;;;;10.02;8.18;;;20.30;96.40;;;;;;5074411;28;20041;-79
2023/08/25 03:20:04;;;;;;;11.57;9.50;;;20.30;96.50;;;;;;5073696;28;20127;-79
2023/08/25 03:22:29;;;;;;;10.27;9.02;;;20.30;96.70;;;;;;5070621;28;20041;-79
2023/08/25 03:24:55;;;;;;;13.00;10.52;;;20.30;96.70;;;;;;5074045;28;20051;-79
2023/08/25 03:27:21;;;;;;;8.98;7.95;;;20.30;96.70;;;;;;5073509;28;20032;-79
2023/08/25 03:29:46;;;;;;;9.60;8.40;;;20.20;96.40;;;;;;5073820;28;20083;-79
2023/08/25 03:32:12;;;;;;;11.80;8.38;;;20.20;96.20;;;;;;5073667;28;20044;-79
2023/08/25 03:34:38;;;;;;;11.63;9.48;;;20.20;96.30;;;;;;5074215;28;20040;-79
2023/08/25 03:37:05;;;;;;;9.65;8.38;;;20.20;96.20;;;;;;5106470;28;20121;-80
2023/08/25 03:39:31;;;;;;;10.52;8.98;;;20.20;96.40;;;;;;5073643;28;20115;-79
2023/08/25 03:41:56;;;;;;;9.48;8.48;;;20.20;96.90;;;;;;5073873;28;20124;-79
2023/08/25 03:44:22;;;;;;;10.18;9.05;;;20.20;96.40;;;;;;5074200;28;20059;-80
2023/08/25 03:46:47;;;;;;;10.27;8.93;;;20.10;96.40;;;;;;5073089;28;20482;-79
2023/08/25 03:49:13;;;;;;;10.35;9.25;;;20.10;96.40;;;;;;5074702;28;20053;-79
2023/08/25 03:51:39;;;;;;;10.73;9.15;;;20.10;96.50;;;;;;5074500;28;20552;-79
2023/08/25 03:54:06;;;;;;;13.63;9.52;;;20.10;96.30;;;;;;5074707;28;20119;-79
2023/08/25 03:56:32;;;;;;;11.82;9.77;;;20.10;96.20;;;;;;5073969;28;20083;-79
2023/08/25 03:58:57;;;;;;;10.73;9.40;;;20.00;96.10;;;;;;5074813;28;20123;-79
2023/08/25 04:01:23;;;;;;;13.00;10.15;;;20.00;96.10;;;;;;5073815;28;20048;-79
2023/08/25 04:03:49;;;;;;;11.25;9.80;;;20.00;96.10;;;;;;5073897;28;20046;-79
2023/08/25 04:06:14;;;;;;;11.55;9.70;;;20.00;95.90;;;;;;5074045;28;20093;-79
2023/08/25 04:08:40;;;;;;;13.80;10.55;;;20.00;96.10;;;;;;5074467;28;20051;-79
2023/08/25 04:11:06;;;;;;;11.35;10.15;;;20.00;96.20;;;;;;5072938;28;20067;-79
2023/08/25 04:13:32;;;;;;;16.85;14.68;;;20.00;96.30;;;;;;5073289;28;20056;-79
2023/08/25 04:15:59;;;;;;;12.60;10.77;;;20.00;96.60;;;;;;5073278;28;20047;-80
2023/08/25 04:18:25;;;;;;;12.63;11.13;;;20.00;96.50;;;;;;5073444;28;20040;-79
2023/08/25 04:20:51;;;;;;;12.25;10.02;;;20.00;96.20;;;;;;5072523;28;20044;-79
2023/08/25 04:23:17;;;;;;;10.88;9.63;;;20.00;96.10;;;;;;5072954;28;20095;-79
2023/08/25 04:25:42;;;;;;;15.73;13.93;;;20.00;96.10;;;;;;5073017;28;20072;-79
2023/08/25 04:28:08;;;;;;;16.55;13.85;;;20.00;96.50;;;;;;5073285;28;20040;-79
2023/08/25 04:30:34;;;;;;;13.68;11.95;;;19.90;96.60;;;;;;5073750;28;20101;-79
2023/08/25 04:33:00;;;;;;;12.52;10.80;;;20.00;96.40;;;;;;5072857;28;20131;-79
2023/08/25 04:35:26;;;;;;;12.40;10.50;;;20.00;96.20;;;;;;5072740;28;20379;-79
2023/08/25 04:37:51;;;;;;;14.52;12.95;;;20.00;96.40;;;;;;5072690;28;20402;-79
2023/08/25 04:40:18;;;;;;;22.10;19.58;;;19.90;96.20;;;;;;5072944;28;20036;-80
2023/08/25 04:42:43;;;;;;;12.75;10.98;;;19.90;96.60;;;;;;5072909;28;20052;-79
2023/08/25 04:45:10;;;;;;;13.45;12.02;;;20.00;96.40;;;;;;5073052;28;20044;-79
2023/08/25 04:47:37;;;;;;;14.90;13.18;;;20.00;96.40;;;;;;5073389;28;20064;-80
2023/08/25 04:50:03;;;;;;;16.02;14.32;;;20.00;96.50;;;;;;5071934;28;20560;-79
2023/08/25 04:52:35;;;;;;;15.18;13.20;;;20.00;96.70;;;;;;5073408;28;20047;-80
2023/08/25 04:55:03;;;;;;;23.83;20.03;;;20.00;96.70;;;;;;5072106;28;20048;-80
2023/08/25 04:57:28;;;;;;;15.93;13.88;;;20.00;97.20;;;;;;5073396;28;20279;-79
2023/08/25 04:59:54;;;;;;;14.68;13.13;;;20.00;97.10;;;;;;5074086;28;20444;-80
2023/08/25 05:02:20;;;;;;;14.05;12.43;;;20.00;97.00;;;;;;5073299;28;20498;-79
2023/08/25 05:04:45;;;;;;;32.05;24.65;;;20.00;96.70;;;;;;5072582;28;20135;-79
2023/08/25 05:07:11;;;;;;;20.25;16.60;;;20.00;97.70;;;;;;5073029;28;20029;-79
2023/08/25 05:09:37;;;;;;;18.80;16.60;;;20.00;97.80;;;;;;5067383;28;20044;-78
2023/08/25 05:12:02;;;;;;;15.75;13.93;;;20.00;97.80;;;;;;5059776;28;20124;-79
2023/08/25 05:14:28;;;;;;;17.30;15.05;;;20.00;97.70;;;;;;5060097;28;20068;-79
2023/08/25 05:16:53;;;;;;;17.23;14.80;;;20.00;97.50;;;;;;5072577;28;20059;-80
2023/08/25 05:19:20;;;;;;;24.67;20.52;;;20.00;97.50;;;;;;5072750;28;20057;-79
2023/08/25 05:21:46;;;;;;;23.35;20.38;;;20.00;97.70;;;;;;5073006;28;20045;-79
2023/08/25 05:24:22;;;;;;;26.17;21.48;;;20.10;98.00;;;;;;5073347;28;20048;-80
2023/08/25 05:26:52;;;;;;;33.22;25.63;;;20.00;98.00;;;;;;5072995;28;20533;-79
2023/08/25 05:29:27;;;;;;;21.17;18.38;;;20.10;98.50;;;;;;5052014;28;20049;-79
2023/08/25 05:31:54;;;;;;;42.95;32.58;;;20.00;98.50;;;;;;5066849;28;20554;-79
2023/08/25 05:34:20;;;;;;;24.95;22.13;;;20.10;99.40;;;;;;5071645;28;20040;-80
2023/08/25 05:36:46;;;;;;;33.40;27.42;;;20.10;99.40;;;;;;5072542;28;20063;-80
2023/08/25 05:39:12;;;;;;;32.10;27.45;;;20.10;99.80;;;;;;5104096;28;20059;-80
2023/08/25 05:41:38;;;;;;;37.15;32.05;;;20.10;99.80;;;;;;5071795;28;20467;-80
2023/08/25 05:44:04;;;;;;;27.60;22.63;;;20.10;99.90;;;;;;5072688;28;20094;-79
2023/08/25 05:46:30;;;;;;;36.55;29.65;;;20.10;99.70;;;;;;5072341;28;20098;-79
2023/08/25 05:48:59;;;;;;;35.03;30.40;;;20.10;99.90;;;;;;5070408;28;20127;-79
2023/08/25 05:51:25;;;;;;;34.53;27.50;;;20.10;99.90;;;;;;5071171;28;20076;-79
2023/08/25 05:53:52;;;;;;;42.88;33.55;;;20.20;99.90;;;;;;5072152;28;20040;-79
2023/08/25 05:56:18;;;;;;;36.75;29.50;;;20.20;99.90;;;;;;5073170;28;20049;-79
2023/08/25 05:58:43;;;;;;;36.88;28.83;;;20.20;99.90;;;;;;5072715;28;20047;-79
2023/08/25 06:01:11;;;;;;;29.58;25.55;;;20.20;99.90;;;;;;5072671;28;20045;-79
2023/08/25 06:03:37;;;;;;;27.00;22.70;;;20.20;99.90;;;;;;5073068;28;20044;-79
2023/08/25 06:06:03;;;;;;;42.55;33.88;;;20.20;99.90;;;;;;5072413;28;20041;-80
2023/08/25 06:08:29;;;;;;;44.88;35.30;;;20.20;99.90;;;;;;5074622;28;20056;-79
2023/08/25 06:10:56;;;;;;;30.08;23.70;;;20.20;99.90;;;;;;5075256;28;20053;-79
2023/08/25 06:13:22;;;;;;;26.63;22.80;;;20.20;99.90;;;;;;5075865;28;20079;-79
2023/08/25 06:15:48;;;;;;;38.13;30.73;;;20.20;99.90;;;;;;5075926;28;20079;-78
2023/08/25 06:18:15;;;;;;;36.47;28.40;;;20.20;99.90;;;;;;5076252;28;20478;-80
2023/08/25 06:20:41;;;;;;;40.33;31.48;;;20.20;99.90;;;;;;5076305;28;20083;-79
2023/08/25 06:23:06;;;;;;;45.97;35.55;;;20.20;99.90;;;;;;5076362;28;20084;-79
2023/08/25 06:25:32;;;;;;;42.85;34.65;;;20.20;99.90;;;;;;5075860;28;20067;-78
2023/08/25 06:27:59;;;;;;;37.33;29.13;;;20.20;99.90;;;;;;5074906;28;20045;-79
2023/08/25 06:30:26;;;;;;;45.20;36.15;;;20.20;99.90;;;;;;5075323;28;20051;-78
2023/08/25 06:32:52;;;;;;;47.53;37.15;;;20.20;99.90;;;;;;5074822;28;20053;-78
2023/08/25 06:35:18;;;;;;;48.45;36.72;;;20.20;99.90;;;;;;5073970;28;20036;-79
2023/08/25 06:37:44;;;;;;;45.10;36.28;;;20.30;99.90;;;;;;5075777;28;20052;-79
2023/08/25 06:40:10;;;;;;;42.83;33.00;;;20.30;99.90;;;;;;5076271;28;20045;-79
2023/08/25 06:42:37;;;;;;;51.80;39.88;;;20.30;99.90;;;;;;5076029;28;20409;-79
2023/08/25 06:45:03;;;;;;;50.42;37.85;;;20.30;99.90;;;;;;5075348;28;20132;-78
2023/08/25 06:47:30;;;;;;;49.95;38.83;;;20.30;99.90;;;;;;5074402;28;20106;-79
2023/08/25 06:49:56;;;;;;;46.38;38.60;;;20.30;99.90;;;;;;5074892;28;20063;-78
2023/08/25 06:52:22;;;;;;;44.88;36.42;;;20.40;99.90;;;;;;5075752;28;20058;-79
2023/08/25 06:54:47;;;;;;;45.22;37.13;;;20.40;99.90;;;;;;5075839;28;20505;-79
2023/08/25 06:57:13;;;;;;;44.05;35.75;;;20.40;99.90;;;;;;5075731;28;20051;-78
2023/08/25 06:59:39;;;;;;;49.83;38.45;;;20.40;99.90;;;;;;5075178;28;20040;-79
2023/08/25 07:02:04;;;;;;;46.53;36.00;;;20.50;99.90;;;;;;5073982;28;20044;-79
2023/08/25 07:04:30;;;;;;;47.22;39.42;;;20.50;99.90;;;;;;5074755;28;20037;-79
2023/08/25 07:06:56;;;;;;;48.85;39.30;;;20.50;99.90;;;;;;5075278;28;20044;-79
2023/08/25 07:09:22;;;;;;;50.83;40.38;;;20.50;99.90;;;;;;5075377;28;20040;-80
2023/08/25 07:11:48;;;;;;;49.90;40.28;;;20.60;99.90;;;;;;5074503;28;20498;-80
2023/08/25 07:14:14;;;;;;;43.15;36.90;;;20.60;99.90;;;;;;5075372;28;20072;-79
2023/08/25 07:16:39;;;;;;;47.40;38.75;;;20.60;99.90;;;;;;5074037;28;20040;-78
2023/08/25 07:19:05;;;;;;;49.95;38.55;;;20.60;99.90;;;;;;5074630;28;20429;-79
2023/08/25 07:21:30;;;;;;;49.45;40.13;;;20.60;99.90;;;;;;5075426;28;20041;-79
2023/08/25 07:23:56;;;;;;;46.78;38.33;;;20.60;99.90;;;;;;5072987;28;20138;-79
2023/08/25 07:26:22;;;;;;;50.92;40.17;;;20.60;99.90;;;;;;5074020;28;20502;-78
2023/08/25 07:28:48;;;;;;;41.75;34.30;;;20.60;99.90;;;;;;5057414;28;20048;-78
2023/08/25 07:31:13;;;;;;;48.97;40.47;;;20.70;99.90;;;;;;5074224;28;20052;-78
2023/08/25 07:33:41;;;;;;;41.40;35.20;;;20.70;99.90;;;;;;5074192;28;20433;-80
2023/08/25 07:36:06;;;;;;;44.97;38.03;;;20.70;99.90;;;;;;5073396;28;20040;-79
2023/08/25 07:38:32;;;;;;;45.25;38.53;;;20.70;99.90;;;;;;5074441;28;20517;-79
2023/08/25 07:40:57;;;;;;;53.28;41.63;;;20.70;99.90;;;;;;5075221;28;20402;-79
2023/08/25 07:43:23;;;;;;;47.63;38.05;;;20.80;99.90;;;;;;5075200;28;20037;-79
2023/08/25 07:45:49;;;;;;;48.38;38.65;;;20.80;99.90;;;;;;5074126;28;20040;-79
2023/08/25 07:48:14;;;;;;;47.63;38.90;;;20.80;99.90;;;;;;5074471;28;20059;-79
2023/08/25 07:50:40;;;;;;;53.97;39.58;;;20.80;99.90;;;;;;5074114;28;20037;-79
2023/08/25 07:53:06;;;;;;;48.15;38.22;;;20.90;99.90;;;;;;5074772;28;20037;-79
2023/08/25 07:55:34;;;;;;;40.35;33.25;;;20.90;99.90;;;;;;5073863;28;20071;-79
2023/08/25 07:58:03;;;;;;;48.28;39.25;;;20.90;99.90;;;;;;5074073;28;20047;-79
2023/08/25 08:00:32;;;;;;;48.75;37.05;;;21.00;99.90;;;;;;5074194;28;20040;-80
2023/08/25 08:02:58;;;;;;;49.10;37.10;;;21.00;99.90;;;;;;5074302;28;20127;-79
2023/08/25 08:05:24;;;;;;;47.55;36.53;;;21.00;99.90;;;;;;5107504;28;20482;-80
2023/08/25 08:07:49;;;;;;;38.72;31.33;;;21.00;99.90;;;;;;5073359;28;20070;-79
2023/08/25 08:10:19;;;;;;;44.92;34.30;;;21.00;99.90;;;;;;5074301;28;20089;-79
2023/08/25 08:12:46;;;;;;;39.63;30.48;;;21.00;99.90;;;;;;5056137;28;20059;-79
2023/08/25 08:15:12;;;;;;;42.63;32.70;;;21.10;99.90;;;;;;5073455;28;20080;-79
2023/08/25 08:17:39;;;;;;;45.20;34.70;;;21.10;99.90;;;;;;5073677;28;20479;-79
2023/08/25 08:20:07;;;;;;;47.00;35.22;;;21.10;99.90;;;;;;5074423;28;20036;-79
2023/08/25 08:22:32;;;;;;;44.45;33.85;;;21.20;99.90;;;;;;5074047;28;20067;-79
2023/08/25 08:24:58;;;;;;;41.33;30.67;;;21.20;99.90;;;;;;5073913;28;20045;-79
2023/08/25 08:27:25;;;;;;;48.05;34.70;;;21.20;99.90;;;;;;5073364;28;20177;-79
2023/08/25 08:29:51;;;;;;;37.28;29.95;;;21.30;99.90;;;;;;5073629;28;20074;-79
2023/08/25 08:32:17;;;;;;;43.60;32.85;;;21.30;99.90;;;;;;5072157;28;20051;-80
2023/08/25 08:34:43;;;;;;;41.35;31.83;;;21.40;99.90;;;;;;5073190;28;20036;-79
2023/08/25 08:37:09;;;;;;;32.58;25.48;;;21.40;99.90;;;;;;5072572;28;20036;-79
2023/08/25 08:39:37;;;;;;;38.33;30.80;;;21.50;99.90;;;;;;5073399;28;20047;-79
2023/08/25 08:42:03;;;;;;;40.63;29.67;;;21.50;99.90;;;;;;5073922;28;20049;-79
2023/08/25 08:44:30;;;;;;;37.75;30.00;;;21.50;99.90;;;;;;5072924;28;20060;-79
2023/08/25 08:46:57;;;;;;;38.08;29.92;;;21.60;99.90;;;;;;5072795;28;20056;-79
2023/08/25 08:49:26;;;;;;;37.28;28.38;;;21.60;99.90;;;;;;5073098;28;20117;-79
2023/08/25 08:51:53;;;;;;;34.03;25.50;;;21.60;99.90;;;;;;5072486;28;20048;-79
2023/08/25 08:54:20;;;;;;;32.42;24.67;;;21.60;99.90;;;;;;5072744;28;20398;-79
2023/08/25 08:56:46;;;;;;;32.70;24.63;;;21.60;99.90;;;;;;5073490;28;20047;-79
2023/08/25 08:59:12;;;;;;;30.10;23.38;;;21.60;99.90;;;;;;5073231;28;20402;-79
2023/08/25 09:01:38;;;;;;;31.42;23.95;;;21.60;99.90;;;;;;5073557;28;20048;-79
2023/08/25 09:04:08;;;;;;;34.33;24.25;;;21.70;99.90;;;;;;5072791;28;20063;-79
2023/08/25 09:06:36;;;;;;;31.52;23.45;;;21.70;99.90;;;;;;5072118;28;20036;-78
2023/08/25 09:09:05;;;;;;;32.58;25.00;;;21.70;99.90;;;;;;5071689;28;20044;-79
2023/08/25 09:11:31;;;;;;;35.30;25.45;;;21.70;99.90;;;;;;5073256;28;20513;-79
2023/08/25 09:13:58;;;;;;;32.97;24.67;;;21.70;99.90;;;;;;5072698;28;20444;-76
2023/08/25 09:16:25;;;;;;;29.20;23.92;;;21.80;99.90;;;;;;5071639;28;20040;-79
2023/08/25 09:18:51;;;;;;;32.85;26.10;;;21.80;99.90;;;;;;5072926;28;20052;-78
2023/08/25 09:21:20;;;;;;;34.17;25.88;;;21.80;99.90;;;;;;5073398;28;20044;-79
2023/08/25 09:23:54;;;;;;;32.67;24.33;;;21.80;99.90;;;;;;5071974;28;20049;-79
2023/08/25 09:26:23;;;;;;;33.40;25.30;;;21.80;99.90;;;;;;5071665;28;20068;-78
2023/08/25 09:28:53;;;;;;;28.25;22.50;;;21.80;99.90;;;;;;5071628;28;20045;-79
2023/08/25 09:31:36;;;;;;;31.55;24.30;;;21.80;99.90;;;;;;5072326;28;20453;-79
2023/08/25 09:34:07;;;;;;;34.15;25.38;;;21.80;99.90;;;;;;5072771;28;20045;-79
2023/08/25 09:36:33;;;;;;;30.95;23.33;;;21.90;99.90;;;;;;5071700;28;20101;-79
2023/08/25 09:39:01;;;;;;;34.00;23.05;;;21.90;99.90;;;;;;5070554;28;20124;-78
2023/08/25 09:41:28;;;;;;;32.55;23.80;;;21.90;99.90;;;;;;5071983;28;20492;-78
2023/08/25 09:44:02;;;;;;;31.77;24.50;;;22.00;99.90;;;;;;5077210;28;20063;-79
2023/08/25 09:46:31;;;;;;;28.17;21.52;;;22.00;99.90;;;;;;5076550;28;20041;-79
2023/08/25 09:49:05;;;;;;;28.10;22.58;;;22.00;99.90;;;;;;5076775;28;20447;-79
2023/08/25 09:51:39;;;;;;;27.85;22.20;;;22.00;99.90;;;;;;5076529;28;20040;-78
2023/08/25 09:54:33;;;;;;;31.55;20.23;;;22.10;99.90;;;;;;5076514;28;20040;-79
2023/08/25 09:56:59;;;;;;;;;;;22.10;99.90;;;;;;5067791;28;20044;-78
2023/08/25 09:59:24;;;;;;;31.65;20.83;;;22.00;99.90;;;;;;5074116;28;19920;-79
2023/08/25 10:01:50;;;;;;;26.02;20.65;;;22.10;99.90;;;;;;5058156;28;20162;-78
2023/08/25 10:04:17;;;;;;;28.38;18.90;;;22.10;99.90;;;;;;5076145;28;20068;-79
2023/08/25 10:06:42;;;;;;;27.20;18.73;;;22.10;99.90;;;;;;5076335;28;20406;-78
2023/08/25 10:09:09;;;;;;;27.95;17.83;;;22.20;99.80;;;;;;5076641;28;20051;-79
2023/08/25 10:11:44;;;;;;;24.02;18.38;;;22.20;99.50;;;;;;5076338;28;20055;-79
2023/08/25 10:14:12;;;;;;;25.10;17.83;;;22.20;99.90;;;;;;5076455;28;20102;-78
2023/08/25 10:16:51;;;;;;;23.67;16.60;;;22.30;99.90;;;;;;5076774;28;20048;-79
2023/08/25 10:19:27;;;;;;;22.70;17.20;;;22.30;99.80;;;;;;5076194;28;20044;-79
2023/08/25 10:21:55;;;;;;;28.23;17.83;;;22.30;99.50;;;;;;5076534;28;20140;-78
2023/08/25 10:24:22;;;;;;;24.60;16.88;;;22.40;99.80;;;;;;5076011;28;20044;-79
2023/08/25 10:26:49;;;;;;;23.73;17.73;;;22.40;99.40;;;;;;5057599;28;20045;-79
2023/08/25 10:29:22;;;;;;;23.83;19.00;;;22.40;99.20;;;;;;5056361;28;20509;-79
2023/08/25 10:31:58;;;;;;;27.15;20.67;;;22.40;98.90;;;;;;5056532;28;20406;-79
2023/08/25 10:34:53;;;;;;;31.63;23.60;;;22.40;99.10;;;;;;5063712;28;20481;-79
2023/08/25 10:37:25;;;;;;;30.63;21.77;;;22.50;99.60;;;;;;5062772;28;20053;-79
2023/08/25 10:40:06;;;;;;;24.77;19.77;;;22.50;99.70;;;;;;5075984;28;20497;-79
2023/08/25 10:42:33;;;;;;;27.75;20.65;;;22.50;99.60;;;;;;5056237;28;20542;-79
2023/08/25 10:45:10;;;;;;;28.02;22.67;;;22.50;99.50;;;;;;5056147;28;20051;-79
2023/08/25 10:47:50;;;;;;;32.83;22.75;;;22.50;99.60;;;;;;5063210;28;20114;-79
2023/08/25 10:50:22;;;;;;;30.15;22.92;;;22.60;99.70;;;;;;5060757;28;20059;-79
2023/08/25 10:52:57;;;;;;;31.67;23.42;;;22.60;99.90;;;;;;5067722;28;20052;-79
2023/08/25 10:55:25;;;;;;;28.23;22.65;;;22.60;99.90;;;;;;5070362;28;20048;-79
2023/08/25 10:57:53;;;;;;;30.55;22.95;;;22.60;99.90;;;;;;5080429;28;20104;-79
2023/08/25 11:00:27;;;;;;;29.80;21.48;;;22.60;99.90;;;;;;5067463;28;20088;-79
2023/08/25 11:02:53;;;;;;;26.27;21.80;;;22.70;99.90;;;;;;5060661;28;20402;-79
2023/08/25 11:05:36;;;;;;;27.98;21.95;;;22.70;99.90;;;;;;5064005;28;20048;-80
2023/08/25 11:08:23;;;;;;;30.13;23.25;;;22.70;99.60;;;;;;5062133;28;20087;-80
2023/08/25 11:11:09;;;;;;;26.40;22.42;;;22.70;99.60;;;;;;5060096;28;20095;-79
2023/08/25 11:13:38;;;;;;;30.13;23.13;;;22.70;99.20;;;;;;5079548;28;20084;-80
2023/08/25 11:16:12;;;;;;;19.33;16.40;;;22.70;99.30;;;;;;5061672;28;20053;-80
2023/08/25 11:18:42;;;;;;;18.80;15.43;;;22.70;98.70;;;;;;5067663;28;20040;-79
2023/08/25 11:21:08;;;;;;;26.42;20.67;;;22.80;98.60;;;;;;5065305;28;20531;-80
2023/08/25 11:23:44;;;;;;;25.73;19.13;;;22.80;98.90;;;;;;5073657;28;20032;-80
2023/08/25 11:26:18;;;;;;;24.05;18.17;;;22.80;98.90;;;;;;5067856;28;20049;-79
2023/08/25 11:28:48;;;;;;;25.52;18.95;;;22.80;99.00;;;;;;5072810;28;20068;-80
2023/08/25 11:31:14;;;;;;;24.27;18.02;;;22.80;99.20;;;;;;5072569;28;20071;-79
2023/08/25 11:33:40;;;;;;;23.55;17.38;;;22.90;99.30;;;;;;5070208;28;20474;-80
2023/08/25 11:36:15;;;;;;;24.23;16.80;;;22.90;99.10;;;;;;5065975;28;20047;-79
2023/08/25 11:38:42;;;;;;;21.45;15.90;;;22.90;99.20;;;;;;5068249;28;20048;-79
2023/08/25 11:41:10;;;;;;;24.20;16.35;;;22.90;99.10;;;;;;5067942;28;20071;-79
2023/08/25 11:43:38;;;;;;;22.33;16.13;;;23.00;99.40;;;;;;5055774;28;20033;-79
2023/08/25 11:46:09;;;;;;;20.70;15.43;;;23.00;99.20;;;;;;5054477;28;20045;-80
2023/08/25 11:48:35;;;;;;;19.48;15.25;;;23.10;99.00;;;;;;5061350;28;20063;-79
2023/08/25 11:51:01;;;;;;;20.67;14.80;;;23.10;98.70;;;;;;5054508;28;20045;-80
2023/08/25 11:53:27;;;;;;;25.45;18.63;;;23.20;98.60;;;;;;5068792;28;20079;-80
2023/08/25 11:56:04;;;;;;;34.58;24.95;;;23.20;98.80;;;;;;5064368;28;20048;-82
2023/08/25 11:58:30;;;;;;;33.78;25.50;;;23.20;98.70;;;;;;5073496;28;20115;-80
2023/08/25 12:01:15;;;;;;;34.33;27.70;;;23.30;98.60;;;;;;5071530;28;20041;-79
2023/08/25 12:03:43;;;;;;;34.78;26.08;;;23.30;98.40;;;;;;5073483;28;20094;-79
2023/08/25 12:06:10;;;;;;;27.05;21.33;;;23.30;99.00;;;;;;5072576;28;20087;-80
2023/08/25 12:08:39;;;;;;;34.20;27.55;;;23.30;98.60;;;;;;5073360;28;20043;-79
2023/08/25 12:11:10;;;;;;;33.67;26.42;;;23.30;98.60;;;;;;5066926;28;20041;-79
2023/08/25 12:13:41;;;;;;;19.83;17.05;;;23.30;98.60;;;;;;5073671;28;20494;-79
2023/08/25 12:16:07;;;;;;;26.98;19.42;;;23.30;98.40;;;;;;5073916;28;20390;-79
2023/08/25 12:18:34;;;;;;;29.85;22.63;;;23.30;98.30;;;;;;5071096;28;20119;-79
2023/08/25 12:21:05;;;;;;;23.55;20.08;;;23.30;98.40;;;;;;5058145;28;20048;-79
2023/08/25 12:23:35;;;;;;;27.98;23.58;;;23.30;98.40;;;;;;5067801;28;20036;-79
2023/08/25 12:26:02;;;;;;;31.13;23.90;;;23.40;98.60;;;;;;5069173;28;20037;-79
2023/08/25 12:28:28;;;;;;;29.27;22.88;;;23.40;98.50;;;;;;5072523;28;20049;-80
2023/08/25 12:30:54;;;;;;;28.35;23.63;;;23.40;98.40;;;;;;5072066;28;20052;-79
2023/08/25 12:33:20;;;;;;;34.50;26.25;;;23.50;98.40;;;;;;5063681;28;20067;-80
2023/08/25 12:35:45;;;;;;;37.10;28.23;;;23.50;98.30;;;;;;5064325;28;20036;-80
2023/08/25 12:38:11;;;;;;;27.50;21.67;;;23.50;98.30;;;;;;5069731;28;20071;-79